createdAt,value
2022-10-02T00:02:03.833Z,101490.19
2022-10-02T00:04:37.318Z,101494.59
2022-10-02T00:07:06.979Z,101497.75
2022-10-02T00:09:49.224Z,101499.00
2022-10-02T00:12:18.660Z,101508.16
2022-10-02T00:14:47.474Z,101505.88
2022-10-02T00:17:21.239Z,101505.56
2022-10-02T00:19:47.569Z,101506.53
2022-10-02T00:22:26.032Z,101505.56
2022-10-02T00:25:20.923Z,101522.91
2022-10-02T00:27:59.212Z,101525.53
2022-10-02T00:30:26.043Z,101547.69
2022-10-02T00:33:11.095Z,101560.31
2022-10-02T00:35:56.486Z,101573.66
2022-10-02T00:38:44.442Z,101558.56
2022-10-02T00:41:24.752Z,101532.78
2022-10-02T00:44:03.167Z,101557.41
2022-10-02T00:46:41.186Z,101555.22
2022-10-02T00:49:40.120Z,101558.03
2022-10-02T00:52:38.791Z,101556.34
2022-10-02T00:55:21.630Z,101550.44
2022-10-02T00:57:57.010Z,101565.44
2022-10-02T01:00:23.607Z,101551.31
2022-10-02T01:03:07.805Z,101561.72
2022-10-02T01:05:34.665Z,101561.53
2022-10-02T01:08:01.449Z,101558.28
2022-10-02T01:10:28.804Z,101550.50
2022-10-02T01:12:56.712Z,101547.38
2022-10-02T01:15:29.116Z,101555.13
2022-10-02T01:17:56.290Z,101550.84
2022-10-02T01:20:42.406Z,101545.06
2022-10-02T01:23:30.406Z,101548.22
2022-10-02T01:25:58.227Z,101539.97
2022-10-02T01:28:25.059Z,101547.34
2022-10-02T01:30:56.416Z,101549.50
2022-10-02T01:33:23.037Z,101544.47
2022-10-02T01:35:50.012Z,101549.63
2022-10-02T01:38:20.281Z,101545.75
2022-10-02T01:40:46.652Z,101547.06
2022-10-02T01:43:25.287Z,101546.81
2022-10-02T01:46:29.316Z,101554.50
2022-10-02T01:48:55.543Z,101549.94
2022-10-02T01:51:59.302Z,101558.56
2022-10-02T01:54:54.778Z,101556.63
2022-10-02T01:57:49.263Z,101562.63
2022-10-02T02:00:17.314Z,101561.69
2022-10-02T02:02:53.518Z,101563.59
2022-10-02T02:05:56.165Z,101560.75
2022-10-02T02:08:25.797Z,101569.88
2022-10-02T02:11:10.099Z,101560.19
2022-10-02T02:13:54.616Z,101562.09
2022-10-02T02:16:44.424Z,101569.66
2022-10-02T02:19:36.058Z,101563.59
2022-10-02T02:22:12.398Z,101564.31
2022-10-02T02:24:45.023Z,101561.69
2022-10-02T02:27:17.727Z,101561.69
2022-10-02T02:29:48.687Z,101556.63
2022-10-02T02:32:21.038Z,101556.16
2022-10-02T02:35:17.239Z,101564.09
2022-10-02T02:37:46.604Z,101560.50
2022-10-02T02:40:17.139Z,101556.06
2022-10-02T02:42:51.183Z,101559.78
2022-10-02T02:45:24.591Z,101560.75
2022-10-02T02:47:55.504Z,101561.34
2022-10-02T02:50:27.371Z,101571.66
2022-10-02T02:53:09.751Z,101565.25
2022-10-02T02:55:45.154Z,101572.81
2022-10-02T02:58:20.459Z,101573.44
2022-10-02T03:00:47.084Z,101562.38
2022-10-02T03:03:13.577Z,101568.38
2022-10-02T03:05:45.866Z,101577.97
2022-10-02T03:08:22.867Z,101565.44
2022-10-02T03:11:24.422Z,101565.22
2022-10-02T03:14:12.040Z,101560.28
2022-10-02T03:17:06.224Z,101563.31
2022-10-02T03:19:35.442Z,101558.03
2022-10-02T03:22:20.328Z,101552.00
2022-10-02T03:25:02.901Z,101567.03
2022-10-02T03:27:37.250Z,101563.59
2022-10-02T03:30:14.444Z,101572.44
2022-10-02T03:32:44.187Z,101568.47
2022-10-02T03:35:13.043Z,101582.91
2022-10-02T03:37:43.926Z,101593.47
2022-10-02T03:40:10.439Z,101587.97
2022-10-02T03:42:37.062Z,101588.53
2022-10-02T03:45:04.645Z,101587.19
2022-10-02T03:47:31.042Z,101590.53
2022-10-02T03:49:57.361Z,101577.44
2022-10-02T03:52:24.078Z,101586.00
2022-10-02T03:55:01.918Z,101601.13
2022-10-02T03:57:30.155Z,101602.81
2022-10-02T04:00:19.099Z,101598.94
2022-10-02T04:02:51.338Z,101598.72
2022-10-02T04:05:44.773Z,101586.41
2022-10-02T04:08:13.751Z,101598.72
2022-10-02T04:10:50.685Z,101596.16
2022-10-02T04:13:24.850Z,101598.47
2022-10-02T04:16:07.655Z,101616.66
2022-10-02T04:18:41.503Z,101608.63
2022-10-02T04:21:26.473Z,101608.84
2022-10-02T04:23:58.255Z,101600.44
2022-10-02T04:26:27.811Z,101605.66
2022-10-02T04:29:02.989Z,101614.06
2022-10-02T04:31:29.334Z,101614.44
2022-10-02T04:34:00.886Z,101615.03
2022-10-02T04:36:45.664Z,101616.59
2022-10-02T04:39:46.784Z,101626.44
2022-10-02T04:42:27.464Z,101630.56
2022-10-02T04:45:12.105Z,101627.69
2022-10-02T04:47:56.993Z,101622.88
2022-10-02T04:50:55.711Z,101632.28
2022-10-02T04:53:40.194Z,101633.47
2022-10-02T04:56:21.422Z,101631.06
2022-10-02T04:59:00.186Z,101626.13
2022-10-02T05:01:35.701Z,101632.03
2022-10-02T05:04:19.271Z,101639.22
2022-10-02T05:07:11.813Z,101626.03
2022-10-02T05:10:13.666Z,101637.16
2022-10-02T05:13:21.679Z,101638.25
2022-10-02T05:15:55.616Z,101637.31
2022-10-02T05:18:37.224Z,101639.22
2022-10-02T05:21:15.666Z,101648.94
2022-10-02T05:24:03.916Z,101662.50
2022-10-02T05:26:44.122Z,101672.34
2022-10-02T05:29:38.035Z,101670.19
2022-10-02T05:32:47.914Z,101681.00
2022-10-02T05:36:13.178Z,101684.31
2022-10-02T05:39:07.714Z,101687.78
2022-10-02T05:41:40.066Z,101685.00
2022-10-02T05:44:13.187Z,101686.69
2022-10-02T05:47:05.435Z,101693.66
2022-10-02T05:49:38.482Z,101685.16
2022-10-02T05:52:25.251Z,101677.44
2022-10-02T05:54:55.484Z,101682.38
2022-10-02T05:57:35.057Z,101679.53
2022-10-02T06:00:05.136Z,101675.31
2022-10-02T06:02:59.047Z,101672.78
2022-10-02T06:05:33.754Z,101670.88
2022-10-02T06:08:03.936Z,101675.91
2022-10-02T06:10:43.147Z,101674.59
2022-10-02T06:13:17.868Z,101680.44
2022-10-02T06:15:51.109Z,101687.44
2022-10-02T06:18:23.831Z,101693.44
2022-10-02T06:20:56.195Z,101679.59
2022-10-02T06:23:27.744Z,101687.53
2022-10-02T06:26:00.895Z,101697.75
2022-10-02T06:28:51.879Z,101701.34
2022-10-02T06:31:40.192Z,101707.97
2022-10-02T06:34:11.318Z,101709.28
2022-10-02T06:37:05.346Z,101706.50
2022-10-02T06:39:53.391Z,101710.72
2022-10-02T06:42:41.019Z,101710.22
2022-10-02T06:45:18.851Z,101725.84
2022-10-02T06:47:59.052Z,101729.56
2022-10-02T06:50:43.374Z,101739.75
2022-10-02T06:53:30.262Z,101742.50
2022-10-02T06:56:01.363Z,101747.16
2022-10-02T06:58:57.159Z,101737.59
2022-10-02T07:01:35.409Z,101734.28
2022-10-02T07:04:13.310Z,101748.19
2022-10-02T07:07:04.649Z,101753.72
2022-10-02T07:10:07.525Z,101746.66
2022-10-02T07:12:57.022Z,101751.19
2022-10-02T07:15:44.211Z,101749.28
2022-10-02T07:18:25.799Z,101754.19
2022-10-02T07:21:27.819Z,101752.69
2022-10-02T07:24:08.208Z,101768.06
2022-10-02T07:26:41.967Z,101762.84
2022-10-02T07:29:32.351Z,101776.28
2022-10-02T07:32:34.230Z,101778.53
2022-10-02T07:35:22.581Z,101778.00
2022-10-02T07:38:10.712Z,101782.06
2022-10-02T07:41:02.815Z,101784.78
2022-10-02T07:43:47.977Z,101791.84
2022-10-02T07:46:29.878Z,101789.66
2022-10-02T07:49:02.498Z,101794.69
2022-10-02T07:51:49.614Z,101786.34
2022-10-02T07:54:24.884Z,101783.81
2022-10-02T07:56:53.952Z,101781.44
2022-10-02T07:59:20.755Z,101794.69
2022-10-02T08:01:50.565Z,101797.47
2022-10-02T08:04:36.639Z,101797.97
2022-10-02T08:07:04.785Z,101785.44
2022-10-02T08:09:38.711Z,101797.16
2022-10-02T08:12:28.846Z,101804.69
2022-10-02T08:14:57.540Z,101805.81
2022-10-02T08:17:44.208Z,101818.09
2022-10-02T08:20:25.377Z,101811.78
2022-10-02T08:23:03.234Z,101815.84
2022-10-02T08:25:37.771Z,101827.88
2022-10-02T08:28:19.801Z,101821.47
2022-10-02T08:30:46.708Z,101819.34
2022-10-02T08:33:19.288Z,101830.31
2022-10-02T08:36:02.682Z,101822.25
2022-10-02T08:38:40.222Z,101837.16
2022-10-02T08:41:35.165Z,101840.44
2022-10-02T08:44:35.982Z,101842.25
2022-10-02T08:47:36.645Z,101849.78
2022-10-02T08:50:37.042Z,101849.47
2022-10-02T08:53:21.958Z,101851.47
2022-10-02T08:56:20.185Z,101862.59
2022-10-02T08:58:57.918Z,101864.25
2022-10-02T09:01:45.234Z,101870.81
2022-10-02T09:04:40.420Z,101862.00
2022-10-02T09:07:48.313Z,101864.31
2022-10-02T09:10:45.203Z,101866.03
2022-10-02T09:13:29.689Z,101874.03
2022-10-02T09:16:11.497Z,101865.50
2022-10-02T09:18:38.356Z,101866.91
2022-10-02T09:21:52.435Z,101869.88
2022-10-02T09:24:37.014Z,101872.72
2022-10-02T09:27:34.394Z,101895.53
2022-10-02T09:30:18.085Z,101894.34
2022-10-02T09:33:16.970Z,101890.53
2022-10-02T09:36:04.326Z,101889.50
2022-10-02T09:38:45.034Z,101895.44
2022-10-02T09:41:50.002Z,101899.53
2022-10-02T09:45:01.489Z,101903.66
2022-10-02T09:47:55.180Z,101898.81
2022-10-02T09:50:53.529Z,101883.91
2022-10-02T09:53:58.402Z,101883.03
2022-10-02T09:56:45.462Z,101893.19
2022-10-02T09:59:45.914Z,101894.03
2022-10-02T10:02:20.453Z,101892.59
2022-10-02T10:05:08.721Z,101896.84
2022-10-02T10:07:52.990Z,101905.56
2022-10-02T10:10:22.061Z,101908.25
2022-10-02T10:13:10.612Z,101913.16
2022-10-02T10:16:11.301Z,101914.03
2022-10-02T10:19:22.075Z,101916.38
2022-10-02T10:22:26.661Z,101919.66
2022-10-02T10:25:04.438Z,101918.00
2022-10-02T10:27:55.281Z,101927.84
2022-10-02T10:30:56.391Z,101932.66
2022-10-02T10:33:33.149Z,101926.63
2022-10-02T10:37:00.353Z,101928.22
2022-10-02T10:40:04.577Z,101929.72
2022-10-02T10:43:06.855Z,101931.53
2022-10-02T10:45:34.987Z,101934.09
2022-10-02T10:48:27.443Z,101946.03
2022-10-02T10:51:19.766Z,101943.25
2022-10-02T10:54:01.716Z,101941.41
2022-10-02T10:56:35.707Z,101953.09
2022-10-02T10:59:25.491Z,101964.00
2022-10-02T11:02:03.417Z,101960.13
2022-10-02T11:04:53.426Z,101962.94
2022-10-02T11:07:44.386Z,101978.97
2022-10-02T11:10:32.112Z,101983.03
2022-10-02T11:13:23.718Z,101986.13
2022-10-02T11:16:08.916Z,101991.63
2022-10-02T11:19:01.470Z,101989.53
2022-10-02T11:21:48.039Z,101981.28
2022-10-02T11:24:33.770Z,101993.19
2022-10-02T11:27:18.847Z,101999.44
2022-10-02T11:30:12.061Z,101992.19
2022-10-02T11:33:02.939Z,101994.50
2022-10-02T11:35:37.957Z,101991.78
2022-10-02T11:38:42.155Z,101994.16
2022-10-02T11:41:32.827Z,102010.22
2022-10-02T11:44:22.169Z,102006.31
2022-10-02T11:47:13.716Z,102010.56
2022-10-02T11:50:05.255Z,102004.41
2022-10-02T11:52:56.449Z,102001.72
2022-10-02T11:55:44.277Z,101995.72
2022-10-02T11:58:45.020Z,101999.88
2022-10-02T12:01:35.919Z,102003.28
2022-10-02T12:04:30.370Z,102007.69
2022-10-02T12:07:21.515Z,102008.66
2022-10-02T12:10:12.329Z,102012.78
2022-10-02T12:13:03.570Z,102002.88
2022-10-02T12:15:33.127Z,102002.09
2022-10-02T12:18:10.191Z,102005.38
2022-10-02T12:21:19.966Z,102000.25
2022-10-02T12:24:32.300Z,102018.81
2022-10-02T12:27:10.476Z,102014.47
2022-10-02T12:29:55.899Z,102021.34
2022-10-02T12:32:27.362Z,102030.59
2022-10-02T12:35:09.819Z,102029.09
2022-10-02T12:37:49.387Z,102035.03
2022-10-02T12:40:27.627Z,102030.75
2022-10-02T12:43:12.886Z,102037.19
2022-10-02T12:46:13.102Z,102039.59
2022-10-02T12:48:58.247Z,102041.63
2022-10-02T12:51:30.020Z,102049.13
2022-10-02T12:54:16.040Z,102043.03
2022-10-02T12:57:35.429Z,102040.06
2022-10-02T13:00:14.673Z,102036.31
2022-10-02T13:03:00.734Z,102039.03
2022-10-02T13:05:37.850Z,102054.38
2022-10-02T13:08:24.408Z,102043.63
2022-10-02T13:11:14.769Z,102052.81
2022-10-02T13:14:00.443Z,102049.34
2022-10-02T13:16:35.045Z,102051.78
2022-10-02T13:19:13.838Z,102054.09
2022-10-02T13:22:03.914Z,102049.72
2022-10-02T13:24:51.659Z,102047.25
2022-10-02T13:27:39.986Z,102047.53
2022-10-02T13:30:18.040Z,102048.56
2022-10-02T13:33:15.388Z,102055.03
2022-10-02T13:35:53.777Z,102052.50
2022-10-02T13:38:26.182Z,102064.09
2022-10-02T13:41:20.508Z,102059.88
2022-10-02T13:44:12.123Z,102067.03
2022-10-02T13:46:57.134Z,102075.00
2022-10-02T13:49:45.314Z,102086.91
2022-10-02T13:52:35.938Z,102086.63
2022-10-02T13:55:17.619Z,102080.50
2022-10-02T13:58:02.298Z,102080.50
2022-10-02T14:00:38.040Z,102079.25
2022-10-02T14:03:41.518Z,102089.00
2022-10-02T14:06:31.573Z,102088.13
2022-10-02T14:09:08.709Z,102074.00
2022-10-02T14:11:50.202Z,102083.47
2022-10-02T14:14:26.772Z,102091.75
2022-10-02T14:17:13.798Z,102084.38
2022-10-02T14:20:18.579Z,102079.88
2022-10-02T14:22:53.954Z,102091.69
2022-10-02T14:25:42.482Z,102094.94
2022-10-02T14:28:11.560Z,102089.44
2022-10-02T14:31:23.148Z,102095.13
2022-10-02T14:33:56.081Z,102096.78
2022-10-02T14:36:32.255Z,102099.22
2022-10-02T14:39:01.505Z,102102.97
2022-10-02T14:42:10.467Z,102113.91
2022-10-02T14:45:00.373Z,102112.81
2022-10-02T14:47:48.190Z,102108.28
2022-10-02T14:50:33.487Z,102116.97
2022-10-02T14:53:14.676Z,102128.91
2022-10-02T14:56:08.678Z,102114.22
2022-10-02T14:59:10.082Z,102124.38
2022-10-02T15:02:12.089Z,102128.03
2022-10-02T15:04:47.437Z,102127.81
2022-10-02T15:07:18.139Z,102135.88
2022-10-02T15:10:02.937Z,102138.25
2022-10-02T15:12:48.268Z,102142.72
2022-10-02T15:15:40.080Z,102137.75
2022-10-02T15:18:43.144Z,102142.00
2022-10-02T15:21:26.722Z,102154.84
2022-10-02T15:23:56.673Z,102152.25
2022-10-02T15:26:50.538Z,102155.97
2022-10-02T15:29:31.999Z,102160.75
2022-10-02T15:32:28.175Z,102171.38
2022-10-02T15:35:07.554Z,102164.78
2022-10-02T15:38:04.825Z,102184.16
2022-10-02T15:40:47.247Z,102182.47
2022-10-02T15:43:16.510Z,102177.81
2022-10-02T15:45:42.798Z,102191.31
2022-10-02T15:48:24.345Z,102194.03
2022-10-02T15:51:18.621Z,102195.72
2022-10-02T15:53:59.882Z,102204.69
2022-10-02T15:56:55.691Z,102213.09
2022-10-02T15:59:52.372Z,102213.63
2022-10-02T16:02:48.574Z,102210.78
2022-10-02T16:05:38.735Z,102223.31
2022-10-02T16:08:25.121Z,102226.16
2022-10-02T16:11:26.749Z,102230.78
2022-10-02T16:14:11.587Z,102241.91
2022-10-02T16:16:39.430Z,102237.31
2022-10-02T16:19:34.897Z,102245.69
2022-10-02T16:22:32.591Z,102246.22
2022-10-02T16:25:21.533Z,102244.16
2022-10-02T16:27:58.918Z,102254.78
2022-10-02T16:30:30.878Z,102254.72
2022-10-02T16:33:14.938Z,102259.41
2022-10-02T16:36:18.960Z,102258.28
2022-10-02T16:38:51.638Z,102270.88
2022-10-02T16:41:42.990Z,102268.44
2022-10-02T16:44:37.263Z,102275.59
2022-10-02T16:47:24.990Z,102287.38
2022-10-02T16:50:14.191Z,102290.06
2022-10-02T16:53:00.856Z,102299.06
2022-10-02T16:55:32.258Z,102300.72
2022-10-02T16:58:09.895Z,102297.94
2022-10-02T17:00:48.192Z,102308.38
2022-10-02T17:03:30.367Z,102314.59
2022-10-02T17:06:15.293Z,102323.34
2022-10-02T17:08:54.749Z,102335.91
2022-10-02T17:11:45.106Z,102331.75
2022-10-02T17:14:11.506Z,102344.31
2022-10-02T17:16:47.148Z,102344.34
2022-10-02T17:19:53.750Z,102350.31
2022-10-02T17:22:28.652Z,102354.50
2022-10-02T17:25:26.905Z,102365.00
2022-10-02T17:28:02.276Z,102371.91
2022-10-02T17:30:43.953Z,102369.03
2022-10-02T17:33:13.209Z,102381.09
2022-10-02T17:35:42.602Z,102372.63
2022-10-02T17:38:24.101Z,102380.97
2022-10-02T17:41:09.263Z,102385.75
2022-10-02T17:43:50.895Z,102393.25
2022-10-02T17:46:38.300Z,102398.72
2022-10-02T17:49:27.892Z,102400.50
2022-10-02T17:52:47.051Z,102407.59
2022-10-02T17:55:53.530Z,102413.41
2022-10-02T17:58:39.166Z,102415.50
2022-10-02T18:01:17.652Z,102424.03
2022-10-02T18:04:14.641Z,102422.66
2022-10-02T18:06:41.909Z,102427.78
2022-10-02T18:09:45.633Z,102439.59
2022-10-02T18:12:35.998Z,102447.16
2022-10-02T18:15:22.774Z,102444.16
2022-10-02T18:18:08.042Z,102442.94
2022-10-02T18:20:50.117Z,102441.75
2022-10-02T18:23:19.155Z,102448.34
2022-10-02T18:26:05.259Z,102453.97
2022-10-02T18:29:07.534Z,102450.69
2022-10-02T18:32:02.873Z,102452.66
2022-10-02T18:34:29.380Z,102458.22
2022-10-02T18:37:18.912Z,102455.97
2022-10-02T18:40:12.958Z,102457.94
2022-10-02T18:42:56.966Z,102458.13
2022-10-02T18:45:56.128Z,102463.97
2022-10-02T18:48:34.464Z,102460.13
2022-10-02T18:51:28.502Z,102468.09
2022-10-02T18:54:17.874Z,102470.19
2022-10-02T18:57:16.666Z,102475.81
2022-10-02T19:00:02.761Z,102477.13
2022-10-02T19:02:50.718Z,102484.56
2022-10-02T19:05:22.941Z,102485.56
2022-10-02T19:07:56.261Z,102488.41
2022-10-02T19:10:31.517Z,102491.38
2022-10-02T19:13:17.565Z,102484.59
2022-10-02T19:15:46.203Z,102486.47
2022-10-02T19:18:25.185Z,102496.28
2022-10-02T19:20:57.522Z,102498.22
2022-10-02T19:23:32.435Z,102503.84
2022-10-02T19:26:05.112Z,102510.31
2022-10-02T19:28:37.268Z,102515.75
2022-10-02T19:31:07.958Z,102519.06
2022-10-02T19:33:51.063Z,102520.50
2022-10-02T19:36:21.041Z,102522.03
2022-10-02T19:38:54.430Z,102522.19
2022-10-02T19:41:22.694Z,102529.69
2022-10-02T19:44:00.847Z,102542.25
2022-10-02T19:46:33.079Z,102541.59
2022-10-02T19:49:01.385Z,102542.63
2022-10-02T19:51:27.905Z,102547.13
2022-10-02T19:54:03.388Z,102546.72
2022-10-02T19:56:39.640Z,102547.22
2022-10-02T19:59:16.922Z,102547.63
2022-10-02T20:01:49.827Z,102542.63
2022-10-02T20:04:20.462Z,102550.88
2022-10-02T20:06:52.787Z,102550.44
2022-10-02T20:09:26.810Z,102550.75
2022-10-02T20:12:10.954Z,102558.72
2022-10-02T20:14:44.220Z,102563.00
2022-10-02T20:17:13.151Z,102569.75
2022-10-02T20:19:54.169Z,102567.97
2022-10-02T20:22:34.295Z,102560.97
2022-10-02T20:25:28.780Z,102567.06
2022-10-02T20:28:03.379Z,102565.72
2022-10-02T20:30:43.896Z,102571.97
2022-10-02T20:33:24.554Z,102569.75
2022-10-02T20:36:06.686Z,102577.16
2022-10-02T20:39:00.751Z,102576.47
2022-10-02T20:41:32.737Z,102573.91
2022-10-02T20:44:06.018Z,102590.72
2022-10-02T20:46:47.645Z,102587.41
2022-10-02T20:49:35.221Z,102594.44
2022-10-02T20:52:07.556Z,102599.69
2022-10-02T20:54:56.792Z,102599.88
2022-10-02T20:58:01.420Z,102607.75
2022-10-02T21:00:41.930Z,102603.34
2022-10-02T21:03:19.479Z,102616.66
2022-10-02T21:06:13.607Z,102625.78
2022-10-02T21:09:06.401Z,102627.56
2022-10-02T21:12:00.828Z,102630.19
2022-10-02T21:14:53.175Z,102637.31
2022-10-02T21:17:55.347Z,102647.03
2022-10-02T21:20:50.862Z,102647.28
2022-10-02T21:23:44.869Z,102654.94
2022-10-02T21:26:26.995Z,102645.44
2022-10-02T21:29:02.198Z,102647.97
2022-10-02T21:31:28.445Z,102643.66
2022-10-02T21:34:13.471Z,102666.63
2022-10-02T21:36:47.698Z,102666.13
2022-10-02T21:39:53.358Z,102673.34
2022-10-02T21:42:47.385Z,102673.47
2022-10-02T21:45:35.396Z,102677.03
2022-10-02T21:48:39.241Z,102678.81
2022-10-02T21:51:43.355Z,102677.03
2022-10-02T21:54:34.564Z,102687.72
2022-10-02T21:57:31.902Z,102681.19
2022-10-02T22:00:04.212Z,102686.75
2022-10-02T22:02:38.271Z,102685.19
2022-10-02T22:05:30.262Z,102697.41
2022-10-02T22:08:07.959Z,102696.47
2022-10-02T22:10:43.900Z,102696.47
2022-10-02T22:13:18.127Z,102702.66
2022-10-02T22:15:50.313Z,102695.56
2022-10-02T22:18:49.487Z,102707.00
2022-10-02T22:21:31.274Z,102695.72
2022-10-02T22:24:09.663Z,102696.47
2022-10-02T22:27:15.056Z,102706.06
2022-10-02T22:29:44.887Z,102699.41
2022-10-02T22:33:06.444Z,102697.81
2022-10-02T22:35:59.837Z,102699.47
2022-10-02T22:38:36.620Z,102701.19
2022-10-02T22:41:11.938Z,102703.03
2022-10-02T22:44:02.223Z,102698.69
2022-10-02T22:46:44.138Z,102697.13
2022-10-02T22:49:22.251Z,102703.38
2022-10-02T22:52:04.866Z,102714.19
2022-10-02T22:54:44.559Z,102717.94
2022-10-02T22:57:21.552Z,102712.75
2022-10-02T23:00:11.716Z,102713.66
2022-10-02T23:03:20.975Z,102710.34
2022-10-02T23:05:54.170Z,102709.78
2022-10-02T23:08:38.107Z,102713.34
2022-10-02T23:11:49.176Z,102711.91
2022-10-02T23:14:28.931Z,102710.41
2022-10-02T23:17:18.407Z,102715.72
2022-10-02T23:19:54.532Z,102707.91
2022-10-02T23:22:31.200Z,102721.09
2022-10-02T23:25:14.613Z,102714.44
2022-10-02T23:28:05.226Z,102726.91
2022-10-02T23:30:36.581Z,102720.06
2022-10-02T23:33:24.532Z,102725.28
2022-10-02T23:35:53.541Z,102725.47
2022-10-02T23:38:52.446Z,102725.31
2022-10-02T23:41:39.357Z,102727.63
2022-10-02T23:44:19.626Z,102723.09
2022-10-02T23:46:48.888Z,102721.84
2022-10-02T23:49:22.806Z,102718.13
2022-10-02T23:52:02.652Z,102725.16
2022-10-02T23:54:31.976Z,102727.94
2022-10-02T23:57:19.886Z,102726.09
